createdAt,value
2019-05-02T00:01:11.467Z,17.50
2019-05-02T00:03:41.259Z,16.33
2019-05-02T00:06:12.057Z,18.90
2019-05-02T00:08:44.355Z,17.23
2019-05-02T00:11:13.904Z,17.43
2019-05-02T00:13:43.395Z,18.67
2019-05-02T00:16:18.541Z,19.23
2019-05-02T00:18:47.733Z,17.53
2019-05-02T00:21:17.231Z,17.33
2019-05-02T00:23:46.635Z,19.13
2019-05-02T00:26:15.926Z,17.43
2019-05-02T00:28:48.087Z,17.20
2019-05-02T00:31:20.022Z,17.73
2019-05-02T00:33:48.722Z,18.20
2019-05-02T00:36:18.087Z,19.40
2019-05-02T00:38:49.817Z,17.83
2019-05-02T00:41:19.273Z,19.23
2019-05-02T00:43:48.690Z,19.07
2019-05-02T00:46:17.987Z,18.27
2019-05-02T00:48:59.655Z,18.83
2019-05-02T00:51:28.501Z,20.40
2019-05-02T00:53:57.707Z,20.13
2019-05-02T00:56:26.887Z,18.03
2019-05-02T00:58:56.166Z,19.70
2019-05-02T01:01:44.390Z,19.87
2019-05-02T01:04:27.434Z,19.10
2019-05-02T01:06:55.768Z,19.60
2019-05-02T01:09:25.094Z,19.20
2019-05-02T01:11:54.343Z,16.20
2019-05-02T01:14:27.295Z,19.47
2019-05-02T01:16:58.052Z,19.40
2019-05-02T01:19:27.416Z,18.40
2019-05-02T01:21:56.686Z,18.53
2019-05-02T01:24:25.938Z,20.57
2019-05-02T01:27:14.126Z,20.10
2019-05-02T01:29:48.630Z,18.17
2019-05-02T01:32:25.298Z,20.10
2019-05-02T01:35:09.999Z,20.63
2019-05-02T01:37:58.234Z,18.17
2019-05-02T01:40:27.581Z,19.10
2019-05-02T01:42:58.065Z,20.73
2019-05-02T01:45:27.406Z,21.23
2019-05-02T01:47:56.581Z,20.60
2019-05-02T01:50:28.849Z,20.67
2019-05-02T01:52:58.570Z,21.00
2019-05-02T01:55:27.831Z,21.63
2019-05-02T01:57:57.111Z,19.60
2019-05-02T02:00:29.791Z,20.77
2019-05-02T02:02:59.222Z,23.50
2019-05-02T02:05:32.271Z,21.10
2019-05-02T02:07:59.647Z,22.07
2019-05-02T02:10:29.108Z,21.80
2019-05-02T02:13:04.887Z,23.67
2019-05-02T02:15:30.271Z,21.73
2019-05-02T02:17:59.662Z,22.73
2019-05-02T02:20:31.999Z,21.87
2019-05-02T02:23:10.160Z,21.47
2019-05-02T02:25:45.444Z,20.00
2019-05-02T02:28:14.594Z,18.83
2019-05-02T02:30:44.460Z,20.27
2019-05-02T02:33:13.759Z,26.33
2019-05-02T02:35:49.526Z,26.70
2019-05-02T02:38:13.880Z,25.33
2019-05-02T02:40:43.086Z,23.67
2019-05-02T02:43:32.179Z,25.47
2019-05-02T02:45:57.690Z,25.30
2019-05-02T02:48:23.124Z,24.20
2019-05-02T02:50:52.407Z,25.67
2019-05-02T02:53:30.753Z,24.37
2019-05-02T02:56:03.938Z,23.90
2019-05-02T02:58:44.104Z,25.07
2019-05-02T03:01:03.917Z,25.80
2019-05-02T03:03:35.430Z,25.97
2019-05-02T03:06:07.606Z,26.20
2019-05-02T03:08:45.229Z,27.07
2019-05-02T03:11:08.490Z,26.30
2019-05-02T03:14:07.561Z,26.40
2019-05-02T03:16:33.972Z,26.57
2019-05-02T03:19:03.246Z,27.77
2019-05-02T03:21:32.625Z,28.83
2019-05-02T03:24:05.475Z,27.60
2019-05-02T03:26:33.608Z,28.77
2019-05-02T03:29:03.421Z,25.60
2019-05-02T03:31:32.703Z,27.37
2019-05-02T03:34:02.453Z,28.00
2019-05-02T03:36:36.442Z,28.47
2019-05-02T03:39:13.376Z,28.87
2019-05-02T03:41:33.723Z,31.60
2019-05-02T03:44:11.384Z,29.97
2019-05-02T03:46:34.068Z,28.77
2019-05-02T03:49:07.279Z,30.03
2019-05-02T03:51:34.412Z,26.53
2019-05-02T03:54:07.758Z,30.43
2019-05-02T03:56:34.670Z,28.63
2019-05-02T03:59:04.032Z,28.03
2019-05-02T04:01:34.665Z,30.13
2019-05-02T04:04:05.410Z,29.77
2019-05-02T04:06:34.624Z,30.47
2019-05-02T04:09:05.905Z,27.90
2019-05-02T04:11:40.794Z,30.37
2019-05-02T04:14:17.530Z,30.60
2019-05-02T04:16:41.177Z,30.07
2019-05-02T04:19:10.522Z,28.83
2019-05-02T04:21:39.837Z,32.30
2019-05-02T04:24:15.155Z,29.07
2019-05-02T04:26:52.129Z,28.27
2019-05-02T04:29:11.599Z,27.97
2019-05-02T04:31:40.833Z,27.67
2019-05-02T04:34:15.813Z,32.70
2019-05-02T04:36:41.157Z,31.20
2019-05-02T04:39:15.151Z,32.90
2019-05-02T04:41:42.503Z,31.30
2019-05-02T04:44:11.938Z,31.43
2019-05-02T04:46:41.285Z,29.90
2019-05-02T04:49:10.624Z,28.93
2019-05-02T04:51:39.790Z,30.90
2019-05-02T04:54:09.376Z,32.47
2019-05-02T04:56:39.712Z,33.40
2019-05-02T04:59:17.803Z,28.87
2019-05-02T05:01:49.066Z,29.83
2019-05-02T05:04:27.581Z,30.40
2019-05-02T05:07:00.911Z,29.83
2019-05-02T05:09:27.924Z,31.47
2019-05-02T05:11:59.038Z,29.63
2019-05-02T05:14:31.378Z,29.13
2019-05-02T05:16:59.258Z,29.20
2019-05-02T05:19:37.742Z,33.40
2019-05-02T05:22:11.986Z,31.37
2019-05-02T05:24:55.675Z,33.27
2019-05-02T05:27:27.675Z,31.80
2019-05-02T05:29:59.545Z,33.07
2019-05-02T05:32:28.259Z,28.80
2019-05-02T05:34:57.988Z,30.57
2019-05-02T05:37:29.459Z,29.93
2019-05-02T05:39:58.363Z,29.97
2019-05-02T05:42:30.199Z,30.10
2019-05-02T05:44:58.502Z,32.10
2019-05-02T05:47:27.755Z,28.90
2019-05-02T05:50:00.957Z,32.53
2019-05-02T05:52:27.949Z,31.27
2019-05-02T05:54:57.944Z,32.57
2019-05-02T05:57:27.974Z,30.23
2019-05-02T06:00:11.999Z,29.40
2019-05-02T06:02:50.886Z,31.00
2019-05-02T06:05:08.455Z,31.00
2019-05-02T06:07:41.864Z,31.00
2019-05-02T06:10:09.925Z,31.00
2019-05-02T06:12:39.385Z,31.67
2019-05-02T06:15:08.711Z,29.70
2019-05-02T06:17:38.071Z,29.40
2019-05-02T06:20:07.427Z,29.27
2019-05-02T06:22:36.737Z,31.83
2019-05-02T06:25:09.491Z,28.77
2019-05-02T06:27:39.053Z,31.43
2019-05-02T06:30:09.255Z,28.97
2019-05-02T06:32:38.696Z,30.57
2019-05-02T06:35:08.320Z,32.63
2019-05-02T06:37:40.656Z,31.63
2019-05-02T06:40:12.116Z,32.00
2019-05-02T06:42:41.524Z,29.37
2019-05-02T06:45:12.265Z,32.60
2019-05-02T06:47:43.618Z,31.37
2019-05-02T06:50:14.362Z,31.43
2019-05-02T06:52:43.657Z,32.63
2019-05-02T06:55:14.777Z,30.87
2019-05-02T06:57:44.183Z,32.17
2019-05-02T07:00:13.739Z,31.83
2019-05-02T07:02:43.140Z,31.17
2019-05-02T07:05:14.704Z,33.73
2019-05-02T07:07:44.038Z,35.07
2019-05-02T07:10:13.474Z,33.43
2019-05-02T07:12:46.208Z,33.07
2019-05-02T07:15:33.657Z,32.57
2019-05-02T07:18:05.484Z,33.70
2019-05-02T07:20:40.494Z,32.10
2019-05-02T07:23:10.630Z,33.13
2019-05-02T07:25:39.095Z,28.50
2019-05-02T07:28:09.446Z,35.00
2019-05-02T07:30:39.732Z,35.57
2019-05-02T07:33:09.019Z,38.17
2019-05-02T07:35:38.347Z,36.17
2019-05-02T07:38:07.562Z,39.07
2019-05-02T07:40:37.067Z,37.67
2019-05-02T07:43:06.531Z,38.53
2019-05-02T07:45:40.210Z,39.40
2019-05-02T07:48:12.525Z,42.30
2019-05-02T07:50:41.318Z,40.70
2019-05-02T07:53:14.150Z,39.00
2019-05-02T07:55:42.673Z,36.10
2019-05-02T07:58:12.255Z,37.17
2019-05-02T08:00:41.614Z,37.17
2019-05-02T08:03:10.932Z,36.33
2019-05-02T08:05:42.239Z,39.00
2019-05-02T08:08:12.859Z,38.10
2019-05-02T08:10:43.584Z,35.67
2019-05-02T08:13:17.550Z,35.00
2019-05-02T08:15:45.549Z,35.50
2019-05-02T08:18:14.738Z,37.23
2019-05-02T08:20:44.224Z,36.97
2019-05-02T08:23:13.685Z,38.37
2019-05-02T08:25:45.453Z,37.97
2019-05-02T08:28:19.326Z,38.47
2019-05-02T08:30:54.704Z,37.97
2019-05-02T08:33:24.089Z,38.87
2019-05-02T08:35:53.512Z,37.40
2019-05-02T08:38:22.843Z,37.40
2019-05-02T08:40:52.200Z,35.50
2019-05-02T08:43:21.425Z,36.20
2019-05-02T08:45:50.678Z,36.17
2019-05-02T08:48:22.612Z,35.23
2019-05-02T08:50:50.988Z,37.60
2019-05-02T08:53:22.089Z,36.57
2019-05-02T08:55:51.348Z,40.17
2019-05-02T08:58:20.666Z,37.27
2019-05-02T09:00:49.978Z,40.70
2019-05-02T09:03:19.208Z,38.03
2019-05-02T09:05:48.595Z,38.17
2019-05-02T09:08:17.792Z,39.23
2019-05-02T09:10:47.093Z,38.07
2019-05-02T09:13:23.538Z,37.10
2019-05-02T09:15:51.333Z,38.60
2019-05-02T09:18:18.404Z,36.70
2019-05-02T09:20:54.913Z,40.20
2019-05-02T09:23:18.738Z,36.33
2019-05-02T09:25:47.898Z,39.00
2019-05-02T09:28:21.459Z,39.67
2019-05-02T09:30:48.276Z,36.10
2019-05-02T09:33:17.586Z,37.57
2019-05-02T09:35:46.788Z,37.80
2019-05-02T09:38:16.456Z,36.70
2019-05-02T09:40:47.312Z,36.07
2019-05-02T09:43:16.829Z,36.23
2019-05-02T09:45:46.023Z,37.30
2019-05-02T09:48:17.131Z,37.20
2019-05-02T09:50:46.180Z,36.37
2019-05-02T09:53:20.626Z,37.13
2019-05-02T09:55:50.191Z,36.87
2019-05-02T09:58:21.318Z,36.27
2019-05-02T10:01:13.507Z,36.10
2019-05-02T10:03:42.980Z,35.00
2019-05-02T10:06:13.963Z,36.30
2019-05-02T10:08:46.306Z,36.93
2019-05-02T10:11:17.041Z,33.70
2019-05-02T10:13:45.259Z,36.63
2019-05-02T10:16:18.073Z,34.80
2019-05-02T10:18:45.494Z,34.17
2019-05-02T10:21:17.165Z,35.27
2019-05-02T10:23:45.912Z,35.03
2019-05-02T10:26:19.989Z,38.00
2019-05-02T10:28:50.565Z,34.43
2019-05-02T10:31:17.389Z,31.90
2019-05-02T10:33:46.777Z,34.07
2019-05-02T10:36:19.672Z,30.80
2019-05-02T10:38:48.933Z,31.30
2019-05-02T10:41:17.993Z,31.60
2019-05-02T10:43:54.003Z,29.30
2019-05-02T10:46:27.737Z,29.70
2019-05-02T10:49:02.884Z,30.87
2019-05-02T10:51:35.542Z,29.63
2019-05-02T10:54:07.875Z,31.37
2019-05-02T10:56:37.396Z,28.60
2019-05-02T10:59:06.925Z,31.97
2019-05-02T11:01:59.174Z,31.80
2019-05-02T11:04:29.386Z,30.10
2019-05-02T11:06:58.896Z,30.30
2019-05-02T11:09:28.134Z,31.10
2019-05-02T11:11:57.806Z,32.23
2019-05-02T11:14:42.214Z,28.40
2019-05-02T11:17:22.671Z,27.63
2019-05-02T11:20:04.984Z,31.73
2019-05-02T11:22:34.232Z,29.37
2019-05-02T11:25:03.807Z,32.37
2019-05-02T11:27:33.036Z,30.17
2019-05-02T11:30:02.835Z,27.80
2019-05-02T11:32:32.774Z,28.53
2019-05-02T11:35:02.966Z,29.47
2019-05-02T11:37:32.820Z,30.70
2019-05-02T11:40:06.077Z,30.23
2019-05-02T11:42:33.395Z,29.10
2019-05-02T11:45:02.839Z,29.37
2019-05-02T11:47:32.861Z,27.83
2019-05-02T11:50:02.578Z,26.77
2019-05-02T11:52:36.200Z,28.40
2019-05-02T11:55:03.088Z,27.00
2019-05-02T11:57:33.182Z,25.90
2019-05-02T12:00:05.198Z,29.00
2019-05-02T12:02:58.059Z,25.67
2019-05-02T12:05:35.555Z,29.13
2019-05-02T12:08:07.938Z,25.80
2019-05-02T12:10:36.696Z,24.43
2019-05-02T12:13:06.623Z,23.40
2019-05-02T12:15:36.519Z,22.93
2019-05-02T12:18:06.025Z,27.20
2019-05-02T12:20:36.730Z,27.00
2019-05-02T12:23:09.003Z,25.40
2019-05-02T12:25:37.414Z,25.00
2019-05-02T12:28:06.974Z,24.57
2019-05-02T12:30:37.971Z,25.80
2019-05-02T12:33:07.351Z,25.90
2019-05-02T12:35:36.673Z,25.57
2019-05-02T12:38:06.129Z,23.60
2019-05-02T12:40:35.579Z,23.80
2019-05-02T12:43:04.847Z,23.60
2019-05-02T12:45:34.211Z,23.60
2019-05-02T12:48:17.783Z,23.80
2019-05-02T12:50:48.074Z,23.10
2019-05-02T12:53:17.275Z,23.27
2019-05-02T12:55:46.695Z,21.33
2019-05-02T12:58:16.115Z,20.03
2019-05-02T13:00:46.924Z,20.87
2019-05-02T13:03:38.245Z,21.63
2019-05-02T13:06:07.528Z,19.07
2019-05-02T13:08:48.559Z,20.60
2019-05-02T13:11:36.950Z,21.50
2019-05-02T13:14:16.773Z,23.13
2019-05-02T13:16:38.083Z,24.60
2019-05-02T13:19:07.408Z,22.90
2019-05-02T13:21:45.225Z,21.53
2019-05-02T13:24:29.946Z,22.33
2019-05-02T13:27:00.932Z,22.30
2019-05-02T13:29:32.149Z,22.97
2019-05-02T13:32:23.350Z,21.87
2019-05-02T13:34:57.636Z,21.90
2019-05-02T13:37:27.083Z,24.13
2019-05-02T13:40:12.024Z,22.07
2019-05-02T13:42:43.996Z,21.77
2019-05-02T13:45:37.254Z,22.90
2019-05-02T13:48:06.691Z,22.97
2019-05-02T13:50:36.011Z,22.43
2019-05-02T13:53:05.506Z,23.33
2019-05-02T13:55:39.526Z,22.10
2019-05-02T13:58:08.842Z,21.00
2019-05-02T14:00:44.270Z,21.60
2019-05-02T14:03:14.107Z,21.13
2019-05-02T14:05:48.940Z,20.07
2019-05-02T14:08:32.378Z,22.23
2019-05-02T14:11:17.529Z,21.20
2019-05-02T14:13:47.051Z,19.67
2019-05-02T14:16:16.405Z,19.67
2019-05-02T14:18:45.726Z,18.90
2019-05-02T14:21:17.677Z,17.27
2019-05-02T14:23:47.003Z,18.70
2019-05-02T14:26:27.536Z,18.20
2019-05-02T14:28:47.315Z,17.23
2019-05-02T14:31:16.471Z,17.50
2019-05-02T14:34:06.707Z,14.90
2019-05-02T14:36:36.019Z,14.63
2019-05-02T14:39:09.620Z,14.70
2019-05-02T14:41:41.935Z,15.07
2019-05-02T14:44:12.007Z,14.33
2019-05-02T14:46:46.999Z,13.83
2019-05-02T14:49:23.900Z,12.53
2019-05-02T14:51:48.503Z,12.60
2019-05-02T14:54:17.973Z,14.13
2019-05-02T14:56:59.262Z,14.20
2019-05-02T14:59:32.299Z,15.87
2019-05-02T15:02:07.521Z,15.67
2019-05-02T15:04:38.205Z,15.33
2019-05-02T15:07:33.696Z,15.87
2019-05-02T15:10:06.591Z,14.53
2019-05-02T15:12:37.294Z,14.93
2019-05-02T15:15:08.356Z,15.17
2019-05-02T15:17:38.018Z,16.57
2019-05-02T15:20:13.047Z,15.30
2019-05-02T15:22:42.620Z,13.90
2019-05-02T15:25:17.842Z,14.47
2019-05-02T15:27:49.959Z,14.53
2019-05-02T15:30:20.896Z,15.87
2019-05-02T15:33:04.334Z,15.73
2019-05-02T15:35:43.648Z,17.60
2019-05-02T15:38:24.248Z,18.93
2019-05-02T15:40:53.741Z,19.10
2019-05-02T15:43:23.612Z,15.40
2019-05-02T15:45:52.980Z,15.90
2019-05-02T15:48:27.753Z,14.90
2019-05-02T15:51:00.014Z,19.40
2019-05-02T15:53:39.146Z,18.20
2019-05-02T15:56:18.702Z,17.80
2019-05-02T15:58:42.474Z,15.67
2019-05-02T16:01:28.630Z,16.30
2019-05-02T16:03:58.561Z,15.40
2019-05-02T16:06:31.553Z,15.37
2019-05-02T16:08:58.945Z,16.63
2019-05-02T16:11:32.235Z,14.97
2019-05-02T16:14:02.184Z,15.20
2019-05-02T16:16:32.076Z,16.40
2019-05-02T16:19:02.903Z,15.90
2019-05-02T16:21:52.015Z,16.20
2019-05-02T16:24:24.897Z,17.10
2019-05-02T16:26:56.840Z,18.10
2019-05-02T16:29:31.714Z,16.30
2019-05-02T16:32:13.291Z,17.20
2019-05-02T16:35:15.596Z,17.70
2019-05-02T16:37:39.591Z,15.90
2019-05-02T16:40:12.056Z,15.07
2019-05-02T16:42:41.920Z,13.00
2019-05-02T16:45:12.027Z,14.30
2019-05-02T16:47:42.635Z,15.90
2019-05-02T16:50:12.657Z,16.80
2019-05-02T16:52:50.010Z,16.70
2019-05-02T16:55:20.722Z,16.40
2019-05-02T16:57:51.899Z,15.87
2019-05-02T17:00:23.461Z,15.30
2019-05-02T17:02:53.869Z,16.47
2019-05-02T17:05:32.522Z,15.93
2019-05-02T17:08:23.499Z,15.93
2019-05-02T17:10:57.169Z,16.60
2019-05-02T17:13:32.156Z,16.53
2019-05-02T17:15:59.082Z,16.70
2019-05-02T17:18:29.471Z,15.87
2019-05-02T17:21:01.692Z,15.40
2019-05-02T17:23:32.849Z,17.33
2019-05-02T17:26:04.253Z,18.00
2019-05-02T17:28:33.512Z,16.13
2019-05-02T17:31:03.440Z,16.57
2019-05-02T17:33:34.126Z,17.40
2019-05-02T17:36:05.542Z,17.17
2019-05-02T17:38:36.980Z,15.97
2019-05-02T17:41:07.886Z,17.20
2019-05-02T17:43:41.903Z,17.90
2019-05-02T17:46:12.849Z,16.50
2019-05-02T17:48:40.078Z,15.10
2019-05-02T17:51:37.754Z,16.20
2019-05-02T17:54:08.697Z,16.17
2019-05-02T17:56:42.362Z,16.07
2019-05-02T17:59:11.857Z,15.40
2019-05-02T18:01:41.899Z,15.30
2019-05-02T18:04:12.756Z,16.93
2019-05-02T18:06:42.299Z,15.80
2019-05-02T18:09:12.321Z,16.10
2019-05-02T18:11:43.878Z,16.17
2019-05-02T18:14:19.671Z,15.73
2019-05-02T18:16:47.099Z,15.97
2019-05-02T18:19:24.690Z,17.40
2019-05-02T18:21:58.289Z,16.03
2019-05-02T18:24:25.686Z,15.80
2019-05-02T18:26:54.903Z,14.13
2019-05-02T18:29:24.311Z,17.43
2019-05-02T18:31:55.711Z,15.50
2019-05-02T18:34:25.482Z,16.40
2019-05-02T18:36:57.313Z,16.73
2019-05-02T18:39:26.157Z,16.13
2019-05-02T18:41:55.471Z,15.93
2019-05-02T18:44:24.753Z,15.63
2019-05-02T18:46:57.703Z,14.77
2019-05-02T18:49:29.780Z,16.13
2019-05-02T18:52:01.618Z,16.93
2019-05-02T18:54:38.642Z,17.50
2019-05-02T18:57:08.179Z,17.07
2019-05-02T18:59:37.696Z,17.23
2019-05-02T19:02:08.432Z,18.40
2019-05-02T19:04:43.531Z,17.47
2019-05-02T19:07:15.823Z,15.20
2019-05-02T19:09:51.405Z,16.77
2019-05-02T19:12:25.391Z,16.87
2019-05-02T19:14:57.334Z,15.57
2019-05-02T19:17:38.493Z,18.50
2019-05-02T19:20:10.949Z,15.40
2019-05-02T19:22:48.131Z,17.70
2019-05-02T19:25:08.771Z,16.47
2019-05-02T19:27:57.609Z,15.10
2019-05-02T19:30:32.488Z,15.80
2019-05-02T19:33:03.625Z,16.77
2019-05-02T19:35:37.651Z,16.90
2019-05-02T19:38:06.555Z,15.80
2019-05-02T19:40:36.446Z,17.47
2019-05-02T19:43:07.622Z,18.13
2019-05-02T19:45:37.388Z,18.03
2019-05-02T19:48:06.796Z,17.33
2019-05-02T19:50:43.713Z,21.87
2019-05-02T19:53:14.822Z,18.73
2019-05-02T19:55:42.712Z,19.57
2019-05-02T19:58:11.551Z,19.63
2019-05-02T20:00:42.345Z,19.03
2019-05-02T20:03:21.529Z,20.23
2019-05-02T20:05:48.428Z,18.70
2019-05-02T20:08:21.329Z,19.13
2019-05-02T20:10:49.343Z,19.30
2019-05-02T20:13:20.295Z,19.17
2019-05-02T20:15:57.137Z,20.90
2019-05-02T20:18:28.225Z,20.00
2019-05-02T20:21:23.388Z,19.20
2019-05-02T20:23:48.380Z,18.80
2019-05-02T20:26:17.699Z,19.40
2019-05-02T20:28:47.017Z,17.97
2019-05-02T20:31:59.267Z,18.87
2019-05-02T20:34:28.886Z,16.07
2019-05-02T20:36:58.240Z,16.77
2019-05-02T20:39:27.461Z,16.03
2019-05-02T20:41:57.670Z,17.73
2019-05-02T20:44:27.083Z,17.00
2019-05-02T20:46:56.533Z,17.53
2019-05-02T20:49:25.925Z,17.47
2019-05-02T20:51:55.276Z,18.13
2019-05-02T20:54:24.923Z,19.67
2019-05-02T20:56:54.329Z,16.90
2019-05-02T20:59:23.710Z,17.20
2019-05-02T21:01:53.084Z,15.67
2019-05-02T21:04:22.809Z,15.57
2019-05-02T21:06:59.264Z,14.60
2019-05-02T21:09:42.172Z,14.90
2019-05-02T21:12:12.599Z,16.40
2019-05-02T21:14:42.153Z,15.33
2019-05-02T21:17:12.804Z,13.20
2019-05-02T21:19:45.102Z,14.40
2019-05-02T21:22:19.273Z,15.60
2019-05-02T21:24:48.624Z,14.10
2019-05-02T21:27:18.088Z,13.67
2019-05-02T21:29:47.465Z,14.20
2019-05-02T21:32:16.831Z,14.83
2019-05-02T21:34:47.175Z,14.13
2019-05-02T21:37:17.897Z,12.97
2019-05-02T21:39:47.268Z,14.70
2019-05-02T21:42:16.624Z,15.07
2019-05-02T21:44:46.072Z,14.97
2019-05-02T21:47:16.229Z,15.43
2019-05-02T21:49:54.051Z,15.37
2019-05-02T21:52:38.158Z,15.00
2019-05-02T21:55:38.859Z,15.20
2019-05-02T21:58:08.297Z,15.93
2019-05-02T22:00:58.477Z,18.80
2019-05-02T22:03:27.851Z,18.10
2019-05-02T22:05:57.194Z,17.40
2019-05-02T22:08:26.480Z,16.00
2019-05-02T22:10:55.861Z,15.97
2019-05-02T22:13:27.405Z,16.83
2019-05-02T22:15:56.775Z,15.23
2019-05-02T22:18:26.091Z,15.27
2019-05-02T22:20:58.173Z,15.20
2019-05-02T22:23:27.555Z,17.27
2019-05-02T22:25:59.293Z,14.50
2019-05-02T22:28:28.631Z,15.80
2019-05-02T22:30:57.999Z,14.17
2019-05-02T22:33:27.295Z,15.53
2019-05-02T22:35:56.619Z,14.20
2019-05-02T22:38:42.578Z,14.97
2019-05-02T22:41:12.542Z,13.40
2019-05-02T22:43:42.235Z,14.17
2019-05-02T22:46:37.438Z,14.13
2019-05-02T22:49:06.862Z,12.93
2019-05-02T22:51:37.669Z,12.40
2019-05-02T22:54:20.726Z,12.47
2019-05-02T22:56:39.438Z,12.90
2019-05-02T22:59:08.877Z,15.20
2019-05-02T23:01:38.327Z,12.53
2019-05-02T23:04:07.700Z,13.93
2019-05-02T23:06:37.122Z,12.70
2019-05-02T23:09:07.855Z,14.20
2019-05-02T23:11:38.448Z,13.10
2019-05-02T23:14:07.830Z,12.97
2019-05-02T23:16:37.124Z,14.50
2019-05-02T23:19:06.556Z,13.50
2019-05-02T23:21:35.948Z,13.60
2019-05-02T23:24:09.628Z,13.07
2019-05-02T23:26:56.619Z,13.40
2019-05-02T23:29:26.110Z,12.80
2019-05-02T23:31:58.429Z,13.50
2019-05-02T23:34:27.956Z,12.43
2019-05-02T23:36:57.229Z,13.03
2019-05-02T23:39:26.588Z,12.87
2019-05-02T23:41:55.895Z,14.20
2019-05-02T23:44:25.187Z,11.83
2019-05-02T23:46:55.410Z,12.37
2019-05-02T23:49:24.792Z,13.43
2019-05-02T23:51:54.117Z,15.40
2019-05-02T23:54:23.449Z,12.97
2019-05-02T23:56:52.774Z,15.30
2019-05-02T23:59:22.413Z,14.13
